sensor_id;sensor_type;location;lat;lon;timestamp;P1;durP1;ratioP1;P2;durP2;ratioP2
38605;SDS011;24365;48.446;8.850;2023-06-10T15:04:24;3.88;;;3.47;;
38605;SDS011;24365;48.446;8.850;2023-06-10T15:09:25;3.80;;;3.30;;
38605;SDS011;24365;48.446;8.850;2023-06-10T15:14:26;4.22;;;3.55;;
38605;SDS011;24365;48.446;8.850;2023-06-10T15:19:27;3.03;;;2.70;;
38605;SDS011;24365;48.446;8.850;2023-06-10T15:24:28;4.18;;;3.40;;
38605;SDS011;24365;48.446;8.850;2023-06-10T15:29:32;3.90;;;3.47;;
38605;SDS011;24365;48.446;8.850;2023-06-10T15:34:33;5.15;;;2.92;;
38605;SDS011;24365;48.446;8.850;2023-06-10T15:39:36;4.38;;;3.53;;
38605;SDS011;24365;48.446;8.850;2023-06-10T15:44:37;3.83;;;3.45;;
38605;SDS011;24365;48.446;8.850;2023-06-10T15:49:38;4.60;;;4.03;;
38605;SDS011;24365;48.446;8.850;2023-06-10T15:54:39;4.07;;;3.72;;
38605;SDS011;24365;48.446;8.850;2023-06-10T15:59:40;5.78;;;3.80;;
38605;SDS011;24365;48.446;8.850;2023-06-10T16:04:41;4.90;;;3.85;;
38605;SDS011;24365;48.446;8.850;2023-06-10T16:09:42;4.53;;;3.97;;
38605;SDS011;24365;48.446;8.850;2023-06-10T16:14:43;4.50;;;4.05;;
38605;SDS011;24365;48.446;8.850;2023-06-10T16:19:44;3.97;;;3.60;;
38605;SDS011;24365;48.446;8.850;2023-06-10T16:24:45;4.30;;;3.90;;
38605;SDS011;24365;48.446;8.850;2023-06-10T16:29:46;5.72;;;4.00;;
38605;SDS011;24365;48.446;8.850;2023-06-10T16:34:47;3.95;;;3.55;;
38605;SDS011;24365;48.446;8.850;2023-06-10T16:39:48;4.75;;;4.25;;
38605;SDS011;24365;48.446;8.850;2023-06-10T16:44:49;4.63;;;3.65;;
38605;SDS011;24365;48.446;8.850;2023-06-10T16:49:50;6.00;;;4.32;;
38605;SDS011;24365;48.446;8.850;2023-06-10T16:59:51;6.13;;;4.93;;
38605;SDS011;24365;48.446;8.850;2023-06-10T17:04:53;4.25;;;3.85;;
38605;SDS011;24365;48.446;8.850;2023-06-10T17:14:55;4.53;;;3.88;;
38605;SDS011;24365;48.446;8.850;2023-06-10T17:24:57;4.72;;;3.88;;
38605;SDS011;24365;48.446;8.850;2023-06-10T17:34:59;5.60;;;4.00;;
38605;SDS011;24365;48.446;8.850;2023-06-10T17:45:01;5.35;;;4.05;;
38605;SDS011;24365;48.446;8.850;2023-06-10T17:50:02;5.10;;;3.90;;
38605;SDS011;24365;48.446;8.850;2023-06-10T17:55:04;4.10;;;3.67;;
38605;SDS011;24365;48.446;8.850;2023-06-10T18:00:08;5.40;;;4.10;;
38605;SDS011;24365;48.446;8.850;2023-06-10T18:05:10;5.90;;;4.38;;
38605;SDS011;24365;48.446;8.850;2023-06-10T18:10:11;4.75;;;4.25;;
38605;SDS011;24365;48.446;8.850;2023-06-10T18:15:13;4.55;;;3.97;;
38605;SDS011;24365;48.446;8.850;2023-06-10T18:20:15;4.15;;;3.75;;
38605;SDS011;24365;48.446;8.850;2023-06-10T18:25:16;4.55;;;3.45;;
38605;SDS011;24365;48.446;8.850;2023-06-10T18:30:17;4.13;;;3.72;;
38605;SDS011;24365;48.446;8.850;2023-06-10T18:35:20;3.88;;;3.58;;
38605;SDS011;24365;48.446;8.850;2023-06-10T18:40:22;7.10;;;3.80;;
38605;SDS011;24365;48.446;8.850;2023-06-10T18:45:23;3.92;;;3.50;;
38605;SDS011;24365;48.446;8.850;2023-06-10T18:50:25;5.85;;;3.28;;
38605;SDS011;24365;48.446;8.850;2023-06-10T18:55:26;3.85;;;3.55;;
38605;SDS011;24365;48.446;8.850;2023-06-10T19:00:31;5.03;;;3.22;;
38605;SDS011;24365;48.446;8.850;2023-06-10T19:05:32;5.22;;;3.75;;
38605;SDS011;24365;48.446;8.850;2023-06-10T19:10:33;4.78;;;3.75;;
38605;SDS011;24365;48.446;8.850;2023-06-10T19:15:36;4.65;;;4.18;;
38605;SDS011;24365;48.446;8.850;2023-06-10T19:20:38;7.65;;;4.38;;
38605;SDS011;24365;48.446;8.850;2023-06-10T19:25:43;10.30;;;4.60;;
38605;SDS011;24365;48.446;8.850;2023-06-10T19:35:47;5.85;;;3.88;;
38605;SDS011;24365;48.446;8.850;2023-06-10T19:40:48;5.10;;;3.80;;
38605;SDS011;24365;48.446;8.850;2023-06-10T19:45:49;6.53;;;4.07;;
38605;SDS011;24365;48.446;8.850;2023-06-10T19:50:50;8.18;;;4.53;;
38605;SDS011;24365;48.446;8.850;2023-06-10T20:00:52;4.53;;;4.03;;
38605;SDS011;24365;48.446;8.850;2023-06-10T20:05:53;4.93;;;4.35;;
38605;SDS011;24365;48.446;8.850;2023-06-10T20:10:54;5.20;;;4.25;;
38605;SDS011;24365;48.446;8.850;2023-06-10T20:15:56;4.93;;;4.38;;
38605;SDS011;24365;48.446;8.850;2023-06-10T20:20:57;4.90;;;4.40;;
38605;SDS011;24365;48.446;8.850;2023-06-10T20:26:00;6.00;;;4.03;;
38605;SDS011;24365;48.446;8.850;2023-06-10T20:31:01;6.45;;;5.38;;
38605;SDS011;24365;48.446;8.850;2023-06-10T20:36:02;5.00;;;4.18;;
38605;SDS011;24365;48.446;8.850;2023-06-10T20:41:03;5.80;;;4.57;;
38605;SDS011;24365;48.446;8.850;2023-06-10T20:46:04;6.43;;;4.60;;
38605;SDS011;24365;48.446;8.850;2023-06-10T20:56:06;6.97;;;5.43;;
38605;SDS011;24365;48.446;8.850;2023-06-10T21:11:11;5.28;;;4.72;;
38605;SDS011;24365;48.446;8.850;2023-06-10T21:16:12;4.88;;;4.47;;
38605;SDS011;24365;48.446;8.850;2023-06-10T21:21:13;8.32;;;5.50;;
38605;SDS011;24365;48.446;8.850;2023-06-10T21:26:14;11.52;;;8.15;;
38605;SDS011;24365;48.446;8.850;2023-06-10T21:31:15;6.75;;;5.55;;
38605;SDS011;24365;48.446;8.850;2023-06-10T21:36:16;11.95;;;6.72;;
38605;SDS011;24365;48.446;8.850;2023-06-10T21:41:17;14.48;;;10.32;;
38605;SDS011;24365;48.446;8.850;2023-06-10T21:46:18;18.98;;;10.10;;
38605;SDS011;24365;48.446;8.850;2023-06-10T21:51:19;9.15;;;7.25;;
38605;SDS011;24365;48.446;8.850;2023-06-10T21:56:20;9.18;;;6.85;;
38605;SDS011;24365;48.446;8.850;2023-06-10T22:01:22;7.28;;;5.80;;
38605;SDS011;24365;48.446;8.850;2023-06-10T22:06:23;7.35;;;5.90;;
38605;SDS011;24365;48.446;8.850;2023-06-10T22:11:25;8.57;;;6.75;;
38605;SDS011;24365;48.446;8.850;2023-06-10T22:16:26;7.78;;;5.95;;
38605;SDS011;24365;48.446;8.850;2023-06-10T22:21:27;11.13;;;8.63;;
38605;SDS011;24365;48.446;8.850;2023-06-10T22:26:31;16.65;;;11.02;;
38605;SDS011;24365;48.446;8.850;2023-06-10T22:31:32;16.83;;;10.27;;
38605;SDS011;24365;48.446;8.850;2023-06-10T22:36:33;12.05;;;8.50;;
38605;SDS011;24365;48.446;8.850;2023-06-10T22:41:36;11.07;;;8.45;;
38605;SDS011;24365;48.446;8.850;2023-06-10T22:46:40;9.57;;;7.18;;
38605;SDS011;24365;48.446;8.850;2023-06-10T22:51:41;9.60;;;6.68;;
38605;SDS011;24365;48.446;8.850;2023-06-10T22:56:43;9.70;;;7.63;;
38605;SDS011;24365;48.446;8.850;2023-06-10T23:01:45;9.30;;;7.18;;
38605;SDS011;24365;48.446;8.850;2023-06-10T23:06:47;10.82;;;7.70;;
38605;SDS011;24365;48.446;8.850;2023-06-10T23:11:48;13.73;;;9.25;;
38605;SDS011;24365;48.446;8.850;2023-06-10T23:16:49;11.82;;;8.90;;
38605;SDS011;24365;48.446;8.850;2023-06-10T23:21:51;12.63;;;8.43;;
38605;SDS011;24365;48.446;8.850;2023-06-10T23:26:55;11.60;;;8.50;;
38605;SDS011;24365;48.446;8.850;2023-06-10T23:31:56;10.00;;;7.68;;
38605;SDS011;24365;48.446;8.850;2023-06-10T23:36:57;9.27;;;7.03;;
38605;SDS011;24365;48.446;8.850;2023-06-10T23:41:58;8.40;;;7.40;;
38605;SDS011;24365;48.446;8.850;2023-06-10T23:46:59;7.60;;;6.43;;
38605;SDS011;24365;48.446;8.850;2023-06-10T23:52:00;7.43;;;6.60;;
38605;SDS011;24365;48.446;8.850;2023-06-10T23:57:01;7.53;;;6.40;;
